Terminal Aerodrome Forecast
Issued by NWS Boston, MA

Home | Current Version | Previous Version | Text Only | Print | Product List | Glossary On
Versions: 1 2 3 4 5 6 7 8 9 10 11 12 13 14 15 16 17 18 19 20 21 22 23 24 25 26 27 28 29 30 31 32 33 34 35 36 37 38 39 40 41 42 43 44 45 46 47
654
FTUS41 KBOX 230842 AAA
TAFPVD
TAF AMD
KPVD 230842Z 2309/2406 23005KT P6SM SCT250
      TEMPO 2309/2311 1SM BR
     FM231400 28009KT P6SM SKC
     FM232000 32007KT P6SM VCTS SCT060CB
     FM240000 31005KT P6SM SCT040=

USA.gov is the U.S. government's official web portal to all federal, state and local government web resources and services.